sensor_id;sensor_type;location;lat;lon;timestamp;pressure;altitude;pressure_sealevel;temperature;humidity
21623;BME280;10973;46.706;12.340;2023-04-19T00:00:19;87409.69;;;8.42;48.20
21623;BME280;10973;46.706;12.340;2023-04-19T00:02:46;87412.16;;;8.32;48.44
21623;BME280;10973;46.706;12.340;2023-04-19T00:05:14;87405.34;;;8.27;48.33
21623;BME280;10973;46.706;12.340;2023-04-19T00:07:41;87407.97;;;8.27;48.29
21623;BME280;10973;46.706;12.340;2023-04-19T00:10:09;87405.69;;;8.26;48.38
21623;BME280;10973;46.706;12.340;2023-04-19T00:12:36;87407.84;;;8.20;48.56
21623;BME280;10973;46.706;12.340;2023-04-19T00:15:05;87406.28;;;8.16;48.72
21623;BME280;10973;46.706;12.340;2023-04-19T00:17:33;87399.47;;;8.11;48.78
21623;BME280;10973;46.706;12.340;2023-04-19T00:20:01;87403.50;;;8.05;48.87
21623;BME280;10973;46.706;12.340;2023-04-19T00:22:28;87404.63;;;8.04;48.84
21623;BME280;10973;46.706;12.340;2023-04-19T00:24:55;87401.69;;;8.09;48.64
21623;BME280;10973;46.706;12.340;2023-04-19T00:27:22;87396.00;;;8.04;48.68
21623;BME280;10973;46.706;12.340;2023-04-19T00:29:50;87398.56;;;8.00;48.66
21623;BME280;10973;46.706;12.340;2023-04-19T00:32:17;87392.81;;;7.91;48.71
21623;BME280;10973;46.706;12.340;2023-04-19T00:34:44;87397.22;;;7.83;48.84
21623;BME280;10973;46.706;12.340;2023-04-19T00:37:11;87395.66;;;7.79;48.80
21623;BME280;10973;46.706;12.340;2023-04-19T00:39:38;87392.16;;;7.71;49.02
21623;BME280;10973;46.706;12.340;2023-04-19T00:42:06;87388.75;;;7.67;48.92
21623;BME280;10973;46.706;12.340;2023-04-19T00:44:33;87387.56;;;7.65;49.16
21623;BME280;10973;46.706;12.340;2023-04-19T00:47:00;87381.94;;;7.63;48.84
21623;BME280;10973;46.706;12.340;2023-04-19T00:49:28;87387.09;;;7.59;49.18
21623;BME280;10973;46.706;12.340;2023-04-19T00:51:56;87387.06;;;7.56;49.11
21623;BME280;10973;46.706;12.340;2023-04-19T00:54:24;87385.53;;;7.55;48.90
21623;BME280;10973;46.706;12.340;2023-04-19T00:56:51;87377.97;;;7.50;49.02
21623;BME280;10973;46.706;12.340;2023-04-19T00:59:19;87387.59;;;7.42;49.39
21623;BME280;10973;46.706;12.340;2023-04-19T01:01:47;87384.84;;;7.35;49.28
21623;BME280;10973;46.706;12.340;2023-04-19T01:04:15;87378.16;;;7.38;48.96
21623;BME280;10973;46.706;12.340;2023-04-19T01:06:43;87378.94;;;7.38;49.06
21623;BME280;10973;46.706;12.340;2023-04-19T01:09:10;87380.72;;;7.34;48.83
21623;BME280;10973;46.706;12.340;2023-04-19T01:11:38;87381.47;;;7.35;49.02
21623;BME280;10973;46.706;12.340;2023-04-19T01:14:07;87372.84;;;7.34;49.09
21623;BME280;10973;46.706;12.340;2023-04-19T01:16:34;87369.81;;;7.32;48.94
21623;BME280;10973;46.706;12.340;2023-04-19T01:19:03;87374.63;;;7.27;49.14
21623;BME280;10973;46.706;12.340;2023-04-19T01:21:30;87366.34;;;7.25;48.95
21623;BME280;10973;46.706;12.340;2023-04-19T01:23:57;87367.03;;;7.22;48.99
21623;BME280;10973;46.706;12.340;2023-04-19T01:26:25;87361.28;;;7.12;49.02
21623;BME280;10973;46.706;12.340;2023-04-19T01:28:53;87362.38;;;7.11;48.69
21623;BME280;10973;46.706;12.340;2023-04-19T01:31:20;87365.50;;;6.98;49.15
21623;BME280;10973;46.706;12.340;2023-04-19T01:33:48;87362.88;;;6.98;48.97
21623;BME280;10973;46.706;12.340;2023-04-19T01:36:15;87366.91;;;6.92;49.07
21623;BME280;10973;46.706;12.340;2023-04-19T01:38:42;87369.44;;;6.88;49.18
21623;BME280;10973;46.706;12.340;2023-04-19T01:41:09;87369.34;;;6.81;49.27
21623;BME280;10973;46.706;12.340;2023-04-19T01:43:37;87368.22;;;6.82;49.34
21623;BME280;10973;46.706;12.340;2023-04-19T01:46:04;87367.06;;;6.80;49.09
21623;BME280;10973;46.706;12.340;2023-04-19T01:48:31;87369.97;;;6.75;49.11
21623;BME280;10973;46.706;12.340;2023-04-19T01:50:59;87364.94;;;6.66;49.28
21623;BME280;10973;46.706;12.340;2023-04-19T01:53:26;87361.66;;;6.69;48.97
21623;BME280;10973;46.706;12.340;2023-04-19T01:55:54;87365.31;;;6.65;49.20
21623;BME280;10973;46.706;12.340;2023-04-19T01:58:21;87359.66;;;6.63;49.18
21623;BME280;10973;46.706;12.340;2023-04-19T02:00:48;87359.41;;;6.48;49.61
21623;BME280;10973;46.706;12.340;2023-04-19T02:03:16;87362.44;;;6.51;49.40
21623;BME280;10973;46.706;12.340;2023-04-19T02:05:43;87364.63;;;6.48;49.40
21623;BME280;10973;46.706;12.340;2023-04-19T02:08:10;87358.22;;;6.46;49.10
21623;BME280;10973;46.706;12.340;2023-04-19T02:10:37;87362.66;;;6.42;48.88
21623;BME280;10973;46.706;12.340;2023-04-19T02:13:05;87352.09;;;6.38;48.92
21623;BME280;10973;46.706;12.340;2023-04-19T02:15:32;87361.69;;;6.31;48.94
21623;BME280;10973;46.706;12.340;2023-04-19T02:17:59;87356.22;;;6.20;49.31
21623;BME280;10973;46.706;12.340;2023-04-19T02:20:26;87354.72;;;6.19;49.45
21623;BME280;10973;46.706;12.340;2023-04-19T02:22:53;87352.78;;;6.16;49.18
21623;BME280;10973;46.706;12.340;2023-04-19T02:25:21;87355.25;;;6.09;49.45
21623;BME280;10973;46.706;12.340;2023-04-19T02:27:48;87358.28;;;6.11;49.57
21623;BME280;10973;46.706;12.340;2023-04-19T02:30:16;87351.56;;;6.10;49.69
21623;BME280;10973;46.706;12.340;2023-04-19T02:32:43;87356.16;;;5.98;49.90
21623;BME280;10973;46.706;12.340;2023-04-19T02:35:11;87356.25;;;6.01;49.76
21623;BME280;10973;46.706;12.340;2023-04-19T02:37:38;87351.69;;;5.98;49.53
21623;BME280;10973;46.706;12.340;2023-04-19T02:40:07;87350.19;;;5.97;49.82
21623;BME280;10973;46.706;12.340;2023-04-19T02:42:34;87350.44;;;5.92;49.76
21623;BME280;10973;46.706;12.340;2023-04-19T02:45:01;87346.72;;;5.93;49.95
21623;BME280;10973;46.706;12.340;2023-04-19T02:47:29;87352.66;;;5.90;49.79
21623;BME280;10973;46.706;12.340;2023-04-19T02:49:56;87345.13;;;5.89;49.98
21623;BME280;10973;46.706;12.340;2023-04-19T02:52:25;87344.47;;;5.92;50.01
21623;BME280;10973;46.706;12.340;2023-04-19T02:54:53;87344.72;;;5.87;49.84
21623;BME280;10973;46.706;12.340;2023-04-19T02:57:20;87342.09;;;5.87;50.26
21623;BME280;10973;46.706;12.340;2023-04-19T02:59:47;87341.44;;;5.90;50.42
21623;BME280;10973;46.706;12.340;2023-04-19T03:02:14;87340.81;;;5.96;50.22
21623;BME280;10973;46.706;12.340;2023-04-19T03:04:41;87345.38;;;5.99;50.11
21623;BME280;10973;46.706;12.340;2023-04-19T03:07:09;87338.25;;;6.00;49.70
21623;BME280;10973;46.706;12.340;2023-04-19T03:09:36;87337.78;;;5.94;49.65
21623;BME280;10973;46.706;12.340;2023-04-19T03:12:05;87335.53;;;5.93;50.03
21623;BME280;10973;46.706;12.340;2023-04-19T03:14:33;87333.31;;;5.95;49.99
21623;BME280;10973;46.706;12.340;2023-04-19T03:17:00;87328.50;;;5.97;50.04
21623;BME280;10973;46.706;12.340;2023-04-19T03:19:28;87326.22;;;5.95;49.97
21623;BME280;10973;46.706;12.340;2023-04-19T03:21:56;87324.78;;;5.98;49.65
21623;BME280;10973;46.706;12.340;2023-04-19T03:24:28;87317.22;;;5.93;50.03
21623;BME280;10973;46.706;12.340;2023-04-19T03:26:58;87317.13;;;5.89;49.99
21623;BME280;10973;46.706;12.340;2023-04-19T03:29:25;87316.31;;;5.85;50.18
21623;BME280;10973;46.706;12.340;2023-04-19T03:31:53;87306.63;;;5.86;50.07
21623;BME280;10973;46.706;12.340;2023-04-19T03:34:20;87318.06;;;5.81;50.46
21623;BME280;10973;46.706;12.340;2023-04-19T03:36:47;87312.84;;;5.81;50.53
21623;BME280;10973;46.706;12.340;2023-04-19T03:39:14;87312.94;;;5.85;50.31
21623;BME280;10973;46.706;12.340;2023-04-19T03:41:42;87304.66;;;5.83;50.34
21623;BME280;10973;46.706;12.340;2023-04-19T03:44:09;87303.47;;;5.80;50.36
21623;BME280;10973;46.706;12.340;2023-04-19T03:46:36;87302.47;;;5.85;50.38
21623;BME280;10973;46.706;12.340;2023-04-19T03:49:04;87305.72;;;5.82;50.38
21623;BME280;10973;46.706;12.340;2023-04-19T03:51:31;87297.00;;;5.74;50.76
21623;BME280;10973;46.706;12.340;2023-04-19T03:53:59;87292.47;;;5.71;51.00
21623;BME280;10973;46.706;12.340;2023-04-19T03:56:26;87293.97;;;5.72;50.77
21623;BME280;10973;46.706;12.340;2023-04-19T03:58:53;87299.94;;;5.72;50.83
21623;BME280;10973;46.706;12.340;2023-04-19T04:01:21;87297.69;;;5.71;51.11
21623;BME280;10973;46.706;12.340;2023-04-19T04:03:48;87303.28;;;5.69;50.93
21623;BME280;10973;46.706;12.340;2023-04-19T04:06:16;87299.53;;;5.70;51.16
21623;BME280;10973;46.706;12.340;2023-04-19T04:08:44;87296.91;;;5.70;51.11
21623;BME280;10973;46.706;12.340;2023-04-19T04:11:11;87293.13;;;5.68;51.28
21623;BME280;10973;46.706;12.340;2023-04-19T04:13:38;87296.88;;;5.67;51.51
21623;BME280;10973;46.706;12.340;2023-04-19T04:16:05;87291.56;;;5.63;51.42
21623;BME280;10973;46.706;12.340;2023-04-19T04:18:33;87296.09;;;5.66;51.69
21623;BME280;10973;46.706;12.340;2023-04-19T04:21:00;87296.72;;;5.60;51.42
21623;BME280;10973;46.706;12.340;2023-04-19T04:23:27;87297.06;;;5.58;51.91
21623;BME280;10973;46.706;12.340;2023-04-19T04:25:59;87295.28;;;5.62;51.85
21623;BME280;10973;46.706;12.340;2023-04-19T04:28:27;87297.13;;;5.62;51.91
21623;BME280;10973;46.706;12.340;2023-04-19T04:30:56;87293.75;;;5.61;51.95
21623;BME280;10973;46.706;12.340;2023-04-19T04:33:25;87298.72;;;5.66;52.28
21623;BME280;10973;46.706;12.340;2023-04-19T04:35:55;87294.25;;;5.67;52.02
21623;BME280;10973;46.706;12.340;2023-04-19T04:38:22;87298.38;;;5.68;51.89
21623;BME280;10973;46.706;12.340;2023-04-19T04:40:54;87299.88;;;5.69;52.11
21623;BME280;10973;46.706;12.340;2023-04-19T04:43:23;87290.53;;;5.68;52.27
21623;BME280;10973;46.706;12.340;2023-04-19T04:45:51;87286.47;;;5.70;52.38
21623;BME280;10973;46.706;12.340;2023-04-19T04:48:18;87295.06;;;5.71;52.30
21623;BME280;10973;46.706;12.340;2023-04-19T04:50:45;87287.38;;;5.78;52.49
21623;BME280;10973;46.706;12.340;2023-04-19T04:53:13;87292.00;;;5.85;52.43
21623;BME280;10973;46.706;12.340;2023-04-19T04:55:40;87289.81;;;5.87;52.34
21623;BME280;10973;46.706;12.340;2023-04-19T04:58:08;87292.16;;;5.92;52.73
21623;BME280;10973;46.706;12.340;2023-04-19T05:00:35;87291.81;;;5.93;52.67
21623;BME280;10973;46.706;12.340;2023-04-19T05:03:02;87290.34;;;5.96;52.68
21623;BME280;10973;46.706;12.340;2023-04-19T05:05:30;87288.22;;;6.01;52.65
21623;BME280;10973;46.706;12.340;2023-04-19T05:07:57;87291.25;;;6.03;52.53
21623;BME280;10973;46.706;12.340;2023-04-19T05:10:24;87287.19;;;6.06;52.46
21623;BME280;10973;46.706;12.340;2023-04-19T05:12:51;87292.91;;;6.11;52.36
21623;BME280;10973;46.706;12.340;2023-04-19T05:15:19;87284.38;;;6.14;52.40
21623;BME280;10973;46.706;12.340;2023-04-19T05:17:46;87286.72;;;6.19;52.24
21623;BME280;10973;46.706;12.340;2023-04-19T05:20:14;87281.53;;;6.23;52.12
21623;BME280;10973;46.706;12.340;2023-04-19T05:22:41;87278.50;;;6.21;52.23
21623;BME280;10973;46.706;12.340;2023-04-19T05:25:09;87278.91;;;6.23;52.14
21623;BME280;10973;46.706;12.340;2023-04-19T05:27:36;87280.09;;;6.25;52.20
21623;BME280;10973;46.706;12.340;2023-04-19T05:30:05;87277.19;;;6.30;52.05
21623;BME280;10973;46.706;12.340;2023-04-19T05:32:33;87278.00;;;6.34;52.12
21623;BME280;10973;46.706;12.340;2023-04-19T05:35:00;87267.25;;;6.39;52.14
21623;BME280;10973;46.706;12.340;2023-04-19T05:37:28;87274.47;;;6.46;52.51
21623;BME280;10973;46.706;12.340;2023-04-19T05:39:55;87275.28;;;6.50;52.17
21623;BME280;10973;46.706;12.340;2023-04-19T05:42:22;87267.16;;;6.55;52.16
21623;BME280;10973;46.706;12.340;2023-04-19T05:44:50;87268.34;;;6.61;51.87
21623;BME280;10973;46.706;12.340;2023-04-19T05:47:17;87266.50;;;6.62;52.20
21623;BME280;10973;46.706;12.340;2023-04-19T05:49:44;87264.78;;;6.69;51.83
21623;BME280;10973;46.706;12.340;2023-04-19T05:52:11;87270.06;;;6.73;51.86
21623;BME280;10973;46.706;12.340;2023-04-19T05:54:39;87269.75;;;6.78;52.11
21623;BME280;10973;46.706;12.340;2023-04-19T05:57:06;87261.22;;;6.81;52.12
21623;BME280;10973;46.706;12.340;2023-04-19T05:59:33;87267.22;;;6.81;52.34
21623;BME280;10973;46.706;12.340;2023-04-19T06:02:00;87269.53;;;6.86;52.50
21623;BME280;10973;46.706;12.340;2023-04-19T06:04:28;87262.06;;;6.88;52.50
21623;BME280;10973;46.706;12.340;2023-04-19T06:06:55;87264.00;;;6.91;52.71
21623;BME280;10973;46.706;12.340;2023-04-19T06:09:23;87259.91;;;6.94;52.62
21623;BME280;10973;46.706;12.340;2023-04-19T06:11:50;87258.50;;;7.00;52.60
21623;BME280;10973;46.706;12.340;2023-04-19T06:14:18;87263.47;;;7.05;52.83
21623;BME280;10973;46.706;12.340;2023-04-19T06:16:45;87263.84;;;7.07;52.79
21623;BME280;10973;46.706;12.340;2023-04-19T06:19:13;87261.31;;;7.10;52.93
21623;BME280;10973;46.706;12.340;2023-04-19T06:21:40;87253.56;;;7.17;52.80
21623;BME280;10973;46.706;12.340;2023-04-19T06:24:07;87245.72;;;7.21;52.80
21623;BME280;10973;46.706;12.340;2023-04-19T06:26:34;87249.97;;;7.29;52.40
21623;BME280;10973;46.706;12.340;2023-04-19T06:29:02;87250.41;;;7.35;52.39
21623;BME280;10973;46.706;12.340;2023-04-19T06:31:29;87247.44;;;7.36;52.58
21623;BME280;10973;46.706;12.340;2023-04-19T06:33:57;87248.28;;;7.44;52.49
21623;BME280;10973;46.706;12.340;2023-04-19T06:36:24;87243.84;;;7.48;52.59
21623;BME280;10973;46.706;12.340;2023-04-19T06:38:51;87245.06;;;7.54;52.25
21623;BME280;10973;46.706;12.340;2023-04-19T06:41:18;87239.50;;;7.59;52.21
21623;BME280;10973;46.706;12.340;2023-04-19T06:43:46;87244.78;;;7.62;52.17
21623;BME280;10973;46.706;12.340;2023-04-19T06:46:13;87235.50;;;7.68;52.27
21623;BME280;10973;46.706;12.340;2023-04-19T06:48:40;87238.91;;;7.72;52.43
21623;BME280;10973;46.706;12.340;2023-04-19T06:51:07;87244.22;;;7.76;52.10
21623;BME280;10973;46.706;12.340;2023-04-19T06:53:35;87242.03;;;7.81;52.12
21623;BME280;10973;46.706;12.340;2023-04-19T06:56:03;87244.00;;;7.88;51.82
21623;BME280;10973;46.706;12.340;2023-04-19T06:58:31;87235.06;;;7.93;51.60
21623;BME280;10973;46.706;12.340;2023-04-19T07:01:04;87237.72;;;7.96;51.07
21623;BME280;10973;46.706;12.340;2023-04-19T07:03:31;87241.91;;;8.04;51.32
21623;BME280;10973;46.706;12.340;2023-04-19T07:05:59;87234.88;;;8.08;51.55
21623;BME280;10973;46.706;12.340;2023-04-19T07:08:27;87236.50;;;8.20;51.38
21623;BME280;10973;46.706;12.340;2023-04-19T07:11:14;87232.84;;;8.28;51.20
21623;BME280;10973;46.706;12.340;2023-04-19T07:13:42;87231.81;;;8.36;50.85
21623;BME280;10973;46.706;12.340;2023-04-19T07:16:09;87229.28;;;8.46;50.78
21623;BME280;10973;46.706;12.340;2023-04-19T07:18:36;87225.22;;;8.52;50.64
21623;BME280;10973;46.706;12.340;2023-04-19T07:21:04;87226.03;;;8.60;50.36
21623;BME280;10973;46.706;12.340;2023-04-19T07:23:31;87223.09;;;8.65;49.31
21623;BME280;10973;46.706;12.340;2023-04-19T07:25:58;87228.03;;;8.74;49.29
21623;BME280;10973;46.706;12.340;2023-04-19T07:28:28;87216.06;;;8.80;48.79
21623;BME280;10973;46.706;12.340;2023-04-19T07:30:56;87222.88;;;8.84;48.67
21623;BME280;10973;46.706;12.340;2023-04-19T07:33:24;87216.91;;;8.91;48.73
21623;BME280;10973;46.706;12.340;2023-04-19T07:35:54;87209.47;;;9.00;48.81
21623;BME280;10973;46.706;12.340;2023-04-19T07:38:21;87211.81;;;9.08;48.47
21623;BME280;10973;46.706;12.340;2023-04-19T07:40:49;87207.31;;;9.12;48.42
21623;BME280;10973;46.706;12.340;2023-04-19T07:43:17;87199.50;;;9.23;48.08
21623;BME280;10973;46.706;12.340;2023-04-19T07:45:44;87195.78;;;9.27;47.50
21623;BME280;10973;46.706;12.340;2023-04-19T07:48:12;87190.56;;;9.34;47.42
21623;BME280;10973;46.706;12.340;2023-04-19T07:50:39;87194.72;;;9.39;47.20
21623;BME280;10973;46.706;12.340;2023-04-19T07:53:06;87197.03;;;9.48;47.18
21623;BME280;10973;46.706;12.340;2023-04-19T07:55:34;87195.91;;;9.52;47.36
21623;BME280;10973;46.706;12.340;2023-04-19T07:58:01;87186.94;;;9.57;46.79
21623;BME280;10973;46.706;12.340;2023-04-19T08:00:28;87191.50;;;9.67;46.81
21623;BME280;10973;46.706;12.340;2023-04-19T08:02:56;87187.03;;;9.81;46.17
21623;BME280;10973;46.706;12.340;2023-04-19T08:05:23;87187.84;;;9.85;45.54
21623;BME280;10973;46.706;12.340;2023-04-19T08:07:51;87189.34;;;9.93;45.32
21623;BME280;10973;46.706;12.340;2023-04-19T08:10:19;87189.00;;;9.98;45.35
21623;BME280;10973;46.706;12.340;2023-04-19T08:12:48;87187.91;;;10.03;45.11
21623;BME280;10973;46.706;12.340;2023-04-19T08:15:33;87190.53;;;10.06;44.73
21623;BME280;10973;46.706;12.340;2023-04-19T08:18:04;87175.16;;;10.16;43.74
21623;BME280;10973;46.706;12.340;2023-04-19T08:20:32;87192.88;;;10.15;43.70
21623;BME280;10973;46.706;12.340;2023-04-19T08:23:00;87183.84;;;10.20;43.36
21623;BME280;10973;46.706;12.340;2023-04-19T08:25:40;87187.59;;;10.19;42.44
21623;BME280;10973;46.706;12.340;2023-04-19T08:28:07;87178.59;;;10.30;42.54
21623;BME280;10973;46.706;12.340;2023-04-19T08:30:35;87180.50;;;10.44;41.94
21623;BME280;10973;46.706;12.340;2023-04-19T08:33:02;87176.38;;;10.46;41.40
21623;BME280;10973;46.706;12.340;2023-04-19T08:35:29;87166.59;;;10.50;41.32
21623;BME280;10973;46.706;12.340;2023-04-19T08:37:57;87167.38;;;10.58;40.83
21623;BME280;10973;46.706;12.340;2023-04-19T08:40:24;87157.97;;;10.60;40.43
21623;BME280;10973;46.706;12.340;2023-04-19T08:42:51;87165.88;;;10.71;39.97
21623;BME280;10973;46.706;12.340;2023-04-19T08:45:20;87156.84;;;10.79;39.46
21623;BME280;10973;46.706;12.340;2023-04-19T08:47:57;87157.59;;;10.87;38.91
21623;BME280;10973;46.706;12.340;2023-04-19T08:50:29;87158.38;;;11.01;38.85
21623;BME280;10973;46.706;12.340;2023-04-19T08:53:08;87147.06;;;11.08;38.18
21623;BME280;10973;46.706;12.340;2023-04-19T08:55:41;87139.50;;;11.20;37.23
21623;BME280;10973;46.706;12.340;2023-04-19T08:58:29;87133.88;;;11.22;38.08
21623;BME280;10973;46.706;12.340;2023-04-19T09:01:16;87131.19;;;11.36;38.14
21623;BME280;10973;46.706;12.340;2023-04-19T09:03:48;87130.81;;;11.41;37.77
21623;BME280;10973;46.706;12.340;2023-04-19T09:06:39;87128.53;;;11.43;37.72
21623;BME280;10973;46.706;12.340;2023-04-19T09:09:26;87122.09;;;11.58;38.23
21623;BME280;10973;46.706;12.340;2023-04-19T09:11:56;87128.09;;;11.66;37.48
21623;BME280;10973;46.706;12.340;2023-04-19T09:14:26;87119.81;;;11.71;37.92
21623;BME280;10973;46.706;12.340;2023-04-19T09:17:11;87127.75;;;11.71;37.70
21623;BME280;10973;46.706;12.340;2023-04-19T09:19:47;87113.38;;;11.82;37.47
21623;BME280;10973;46.706;12.340;2023-04-19T09:22:15;87117.53;;;11.80;36.73
21623;BME280;10973;46.706;12.340;2023-04-19T09:24:42;87110.75;;;11.79;36.75
21623;BME280;10973;46.706;12.340;2023-04-19T09:27:18;87106.22;;;11.83;36.28
21623;BME280;10973;46.706;12.340;2023-04-19T09:29:59;87096.72;;;11.96;36.68
21623;BME280;10973;46.706;12.340;2023-04-19T09:32:28;87106.50;;;12.06;36.16
21623;BME280;10973;46.706;12.340;2023-04-19T09:35:10;87091.41;;;11.99;35.86
21623;BME280;10973;46.706;12.340;2023-04-19T09:37:37;87091.75;;;12.08;35.87
21623;BME280;10973;46.706;12.340;2023-04-19T09:40:26;87091.72;;;12.15;35.20
21623;BME280;10973;46.706;12.340;2023-04-19T09:42:53;87088.34;;;12.11;34.38
21623;BME280;10973;46.706;12.340;2023-04-19T09:45:26;87076.22;;;12.17;33.72
21623;BME280;10973;46.706;12.340;2023-04-19T09:48:05;87084.56;;;12.12;33.78
21623;BME280;10973;46.706;12.340;2023-04-19T09:50:33;87081.50;;;12.17;34.27
21623;BME280;10973;46.706;12.340;2023-04-19T09:53:22;87078.50;;;12.15;33.21
21623;BME280;10973;46.706;12.340;2023-04-19T09:55:50;87078.84;;;12.17;33.48
21623;BME280;10973;46.706;12.340;2023-04-19T09:58:28;87069.84;;;12.15;33.79
21623;BME280;10973;46.706;12.340;2023-04-19T10:01:17;87069.78;;;12.22;33.43
21623;BME280;10973;46.706;12.340;2023-04-19T10:03:48;87069.41;;;12.20;33.84
21623;BME280;10973;46.706;12.340;2023-04-19T10:06:18;87065.66;;;12.21;33.52
21623;BME280;10973;46.706;12.340;2023-04-19T10:08:52;87065.25;;;12.23;33.22
21623;BME280;10973;46.706;12.340;2023-04-19T10:11:20;87059.19;;;12.26;33.77
21623;BME280;10973;46.706;12.340;2023-04-19T10:13:53;87059.59;;;12.21;33.82
21623;BME280;10973;46.706;12.340;2023-04-19T10:16:23;87062.19;;;12.31;34.00
21623;BME280;10973;46.706;12.340;2023-04-19T10:18:51;87056.84;;;12.38;33.62
21623;BME280;10973;46.706;12.340;2023-04-19T10:21:20;87057.25;;;12.40;33.29
21623;BME280;10973;46.706;12.340;2023-04-19T10:23:51;87061.72;;;12.43;33.52
21623;BME280;10973;46.706;12.340;2023-04-19T10:26:19;87055.28;;;12.51;33.61
21623;BME280;10973;46.706;12.340;2023-04-19T10:28:47;87054.88;;;12.53;33.48
21623;BME280;10973;46.706;12.340;2023-04-19T10:31:14;87054.47;;;12.54;33.52
21623;BME280;10973;46.706;12.340;2023-04-19T10:33:47;87045.41;;;12.55;33.16
21623;BME280;10973;46.706;12.340;2023-04-19T10:36:14;87046.91;;;12.56;33.04
21623;BME280;10973;46.706;12.340;2023-04-19T10:38:48;87038.91;;;12.63;33.62
21623;BME280;10973;46.706;12.340;2023-04-19T10:41:18;87033.59;;;12.70;33.17
21623;BME280;10973;46.706;12.340;2023-04-19T10:49:00;87021.75;;;12.85;32.18
21623;BME280;10973;46.706;12.340;2023-04-19T10:51:35;87017.53;;;12.92;31.65
21623;BME280;10973;46.706;12.340;2023-04-19T10:54:08;87008.84;;;12.95;31.60
21623;BME280;10973;46.706;12.340;2023-04-19T11:01:38;87005.72;;;13.03;31.45
21623;BME280;10973;46.706;12.340;2023-04-19T11:04:08;87007.97;;;13.05;31.34
21623;BME280;10973;46.706;12.340;2023-04-19T11:06:56;86997.78;;;13.07;30.79
21623;BME280;10973;46.706;12.340;2023-04-19T11:09:36;87003.50;;;12.98;30.77
21623;BME280;10973;46.706;12.340;2023-04-19T11:12:05;86990.88;;;13.16;30.57
21623;BME280;10973;46.706;12.340;2023-04-19T11:14:58;86992.25;;;13.28;30.39
21623;BME280;10973;46.706;12.340;2023-04-19T11:17:30;86988.09;;;13.27;30.02
21623;BME280;10973;46.706;12.340;2023-04-19T11:20:09;86984.59;;;13.37;30.23
21623;BME280;10973;46.706;12.340;2023-04-19T11:25:18;86983.28;;;13.52;29.75
21623;BME280;10973;46.706;12.340;2023-04-19T11:27:51;86985.31;;;13.41;29.83
21623;BME280;10973;46.706;12.340;2023-04-19T11:30:27;86986.41;;;13.43;29.85
21623;BME280;10973;46.706;12.340;2023-04-19T11:32:55;86978.25;;;13.31;29.34
21623;BME280;10973;46.706;12.340;2023-04-19T11:35:26;86982.78;;;13.30;28.77
21623;BME280;10973;46.706;12.340;2023-04-19T11:37:58;86981.69;;;13.28;29.14
21623;BME280;10973;46.706;12.340;2023-04-19T11:40:25;86980.56;;;13.25;28.93
21623;BME280;10973;46.706;12.340;2023-04-19T11:42:56;86965.19;;;13.17;29.09
21623;BME280;10973;46.706;12.340;2023-04-19T11:45:32;86971.59;;;13.16;29.61
21623;BME280;10973;46.706;12.340;2023-04-19T11:48:06;86972.47;;;13.06;30.10
21623;BME280;10973;46.706;12.340;2023-04-19T11:50:43;86965.59;;;13.12;30.14
21623;BME280;10973;46.706;12.340;2023-04-19T11:53:21;86970.56;;;13.06;30.11
21623;BME280;10973;46.706;12.340;2023-04-19T11:55:51;86967.94;;;13.03;30.11
21623;BME280;10973;46.706;12.340;2023-04-19T11:58:56;86968.00;;;12.96;29.60
21623;BME280;10973;46.706;12.340;2023-04-19T12:01:23;86963.19;;;12.83;31.55
21623;BME280;10973;46.706;12.340;2023-04-19T12:03:53;86963.19;;;12.83;31.32
21623;BME280;10973;46.706;12.340;2023-04-19T12:06:28;86956.75;;;12.88;31.45
21623;BME280;10973;46.706;12.340;2023-04-19T12:08:56;86954.50;;;12.86;31.57
21623;BME280;10973;46.706;12.340;2023-04-19T12:11:40;86959.06;;;12.82;31.43
21623;BME280;10973;46.706;12.340;2023-04-19T12:14:12;86956.38;;;12.86;31.66
21623;BME280;10973;46.706;12.340;2023-04-19T12:16:40;86951.06;;;12.89;31.43
21623;BME280;10973;46.706;12.340;2023-04-19T12:19:18;86952.22;;;12.88;30.81
21623;BME280;10973;46.706;12.340;2023-04-19T12:21:46;86947.38;;;12.80;31.22
21623;BME280;10973;46.706;12.340;2023-04-19T12:24:16;86948.84;;;12.84;31.98
21623;BME280;10973;46.706;12.340;2023-04-19T12:26:54;86948.84;;;12.84;31.73
21623;BME280;10973;46.706;12.340;2023-04-19T12:29:31;86947.78;;;12.78;31.22
21623;BME280;10973;46.706;12.340;2023-04-19T12:31:59;86942.38;;;12.89;31.37
21623;BME280;10973;46.706;12.340;2023-04-19T12:34:27;86943.13;;;12.89;31.73
21623;BME280;10973;46.706;12.340;2023-04-19T12:36:55;86935.91;;;12.94;31.45
21623;BME280;10973;46.706;12.340;2023-04-19T12:39:22;86936.31;;;12.92;31.17
21623;BME280;10973;46.706;12.340;2023-04-19T12:41:50;86929.16;;;12.89;31.23
21623;BME280;10973;46.706;12.340;2023-04-19T12:44:17;86930.28;;;12.92;31.62
21623;BME280;10973;46.706;12.340;2023-04-19T12:46:44;86928.41;;;12.88;31.60
21623;BME280;10973;46.706;12.340;2023-04-19T12:49:11;86925.75;;;12.92;31.08
21623;BME280;10973;46.706;12.340;2023-04-19T12:51:39;86920.13;;;12.86;31.00
21623;BME280;10973;46.706;12.340;2023-04-19T12:54:06;86914.47;;;12.84;30.86
21623;BME280;10973;46.706;12.340;2023-04-19T12:56:34;86924.97;;;12.92;31.30
21623;BME280;10973;46.706;12.340;2023-04-19T12:59:03;86920.00;;;12.97;31.28
21623;BME280;10973;46.706;12.340;2023-04-19T13:01:31;86918.44;;;13.03;31.20
21623;BME280;10973;46.706;12.340;2023-04-19T13:03:59;86913.91;;;13.04;30.77
21623;BME280;10973;46.706;12.340;2023-04-19T13:06:26;86904.34;;;13.13;31.51
21623;BME280;10973;46.706;12.340;2023-04-19T13:08:53;86906.28;;;13.09;30.69
21623;BME280;10973;46.706;12.340;2023-04-19T13:11:26;86905.16;;;13.10;30.59
21623;BME280;10973;46.706;12.340;2023-04-19T13:13:53;86899.06;;;13.13;30.63
21623;BME280;10973;46.706;12.340;2023-04-19T13:16:21;86896.03;;;13.15;30.31
21623;BME280;10973;46.706;12.340;2023-04-19T13:18:49;86891.47;;;13.15;30.73
21623;BME280;10973;46.706;12.340;2023-04-19T13:21:16;86890.34;;;13.16;30.43